createdAt,value
2022-09-09T00:02:28.391Z,14.00
2022-09-09T00:05:26.018Z,13.90
2022-09-09T00:07:56.510Z,14.00
2022-09-09T00:10:40.469Z,13.90
2022-09-09T00:13:37.994Z,14.00
2022-09-09T00:16:26.511Z,14.00
2022-09-09T00:19:08.216Z,14.00
2022-09-09T00:21:46.613Z,14.00
2022-09-09T00:24:39.820Z,14.00
2022-09-09T00:27:16.240Z,13.90
2022-09-09T00:29:57.098Z,14.00
2022-09-09T00:32:28.625Z,14.00
2022-09-09T00:35:20.496Z,13.90
2022-09-09T00:37:51.136Z,13.90
2022-09-09T00:40:53.340Z,13.90
2022-09-09T00:43:27.683Z,13.80
2022-09-09T00:46:33.620Z,13.80
2022-09-09T00:49:24.733Z,13.90
2022-09-09T00:52:27.813Z,13.80
2022-09-09T00:55:26.540Z,13.80
2022-09-09T00:57:54.382Z,13.90
2022-09-09T01:00:30.959Z,13.80
2022-09-09T01:03:26.568Z,13.90
2022-09-09T01:06:06.728Z,13.90
2022-09-09T01:08:51.947Z,13.90
2022-09-09T01:11:37.217Z,13.90
2022-09-09T01:14:26.381Z,13.90
2022-09-09T01:16:57.524Z,13.80
2022-09-09T01:19:56.822Z,13.80
2022-09-09T01:22:47.809Z,13.80
2022-09-09T01:25:31.135Z,13.80
2022-09-09T01:28:03.553Z,13.80
2022-09-09T01:30:31.835Z,13.80
2022-09-09T01:33:01.374Z,13.80
2022-09-09T01:35:46.334Z,13.70
2022-09-09T01:38:14.343Z,13.80
2022-09-09T01:40:41.380Z,13.70
2022-09-09T01:43:08.498Z,13.70
2022-09-09T01:45:35.799Z,13.70
2022-09-09T01:48:04.263Z,13.70
2022-09-09T01:50:31.379Z,13.80
2022-09-09T01:53:02.499Z,13.80
2022-09-09T01:55:43.142Z,13.70
2022-09-09T01:58:50.169Z,13.70
2022-09-09T02:02:17.550Z,13.70
2022-09-09T02:04:51.650Z,13.70
2022-09-09T02:07:26.810Z,13.70
2022-09-09T02:10:11.141Z,13.70
2022-09-09T02:12:44.792Z,13.70
2022-09-09T02:15:51.511Z,13.70
2022-09-09T02:18:36.051Z,13.70
2022-09-09T02:21:04.258Z,13.70
2022-09-09T02:23:33.753Z,13.80
2022-09-09T02:26:03.106Z,13.70
2022-09-09T02:28:33.717Z,13.70
2022-09-09T02:31:02.197Z,13.70
2022-09-09T02:33:38.069Z,13.70
2022-09-09T02:36:09.799Z,13.60
2022-09-09T02:38:46.875Z,13.60
2022-09-09T02:41:13.962Z,13.60
2022-09-09T02:43:40.966Z,13.60
2022-09-09T02:46:44.231Z,13.60
2022-09-09T02:49:23.166Z,13.50
2022-09-09T02:52:17.247Z,13.50
2022-09-09T02:54:44.590Z,13.60
2022-09-09T02:57:27.163Z,13.50
2022-09-09T02:59:54.697Z,13.50
2022-09-09T03:02:21.913Z,13.50
2022-09-09T03:04:52.725Z,13.60
2022-09-09T03:07:20.585Z,13.50
2022-09-09T03:09:48.078Z,13.50
2022-09-09T03:12:15.276Z,13.50
2022-09-09T03:14:42.298Z,13.50
2022-09-09T03:17:10.289Z,13.60
2022-09-09T03:19:38.558Z,13.60
2022-09-09T03:22:05.545Z,13.50
2022-09-09T03:24:32.522Z,13.60
2022-09-09T03:26:59.517Z,13.60
2022-09-09T03:29:26.531Z,13.60
2022-09-09T03:31:53.584Z,13.60
2022-09-09T03:34:20.630Z,13.60
2022-09-09T03:36:49.787Z,13.60
2022-09-09T03:39:16.882Z,13.60
2022-09-09T03:41:46.395Z,13.60
2022-09-09T03:44:13.494Z,13.60
2022-09-09T03:46:40.619Z,13.60
2022-09-09T03:49:07.756Z,13.60
2022-09-09T03:51:37.774Z,13.70
2022-09-09T03:54:06.239Z,13.60
2022-09-09T03:56:33.272Z,13.70
2022-09-09T03:59:00.274Z,13.60
2022-09-09T04:01:28.007Z,13.70
2022-09-09T04:03:56.238Z,13.70
2022-09-09T04:06:23.226Z,13.70
2022-09-09T04:08:50.185Z,13.70
2022-09-09T04:11:17.642Z,13.70
2022-09-09T04:13:45.574Z,13.70
2022-09-09T04:16:16.683Z,13.70
2022-09-09T04:18:44.479Z,13.70
2022-09-09T04:21:13.277Z,13.70
2022-09-09T04:23:40.636Z,13.70
2022-09-09T04:26:08.138Z,13.80
2022-09-09T04:28:37.547Z,13.80
2022-09-09T04:31:22.467Z,13.80
2022-09-09T04:33:50.424Z,13.80
2022-09-09T04:36:19.338Z,13.90
2022-09-09T04:38:47.445Z,13.90
2022-09-09T04:41:14.588Z,13.90
2022-09-09T04:43:41.654Z,13.80
2022-09-09T04:46:08.710Z,13.80
2022-09-09T04:48:36.079Z,13.80
2022-09-09T04:51:06.667Z,13.90
2022-09-09T04:53:37.000Z,13.80
2022-09-09T04:56:14.052Z,13.80
2022-09-09T04:58:44.959Z,13.90
2022-09-09T05:01:19.074Z,13.90
2022-09-09T05:03:47.315Z,13.90
2022-09-09T05:06:18.588Z,13.80
2022-09-09T05:08:46.560Z,13.90
2022-09-09T05:11:26.871Z,13.80
2022-09-09T05:13:55.293Z,13.80
2022-09-09T05:16:23.933Z,13.80
2022-09-09T05:18:54.671Z,13.90
2022-09-09T05:21:25.133Z,13.90
2022-09-09T05:23:52.466Z,13.80
2022-09-09T05:26:23.114Z,13.80
2022-09-09T05:28:50.761Z,13.90
2022-09-09T05:31:19.696Z,13.90
2022-09-09T05:33:49.211Z,13.90
2022-09-09T05:36:22.535Z,13.80
2022-09-09T05:38:50.946Z,13.90
2022-09-09T05:41:18.760Z,13.90
2022-09-09T05:43:46.597Z,13.90
2022-09-09T05:46:22.528Z,14.00
2022-09-09T05:48:52.549Z,14.00
2022-09-09T05:51:27.571Z,14.10
2022-09-09T05:53:56.206Z,14.10
2022-09-09T05:56:26.458Z,14.20
2022-09-09T05:58:55.104Z,14.40
2022-09-09T06:01:37.010Z,14.40
2022-09-09T06:04:04.880Z,14.50
2022-09-09T06:06:37.791Z,14.50
2022-09-09T06:09:07.788Z,14.60
2022-09-09T06:11:36.965Z,14.70
2022-09-09T06:14:05.029Z,14.70
2022-09-09T06:16:35.516Z,14.80
2022-09-09T06:19:04.340Z,15.00
2022-09-09T06:21:41.142Z,15.20
2022-09-09T06:24:08.571Z,15.30
2022-09-09T06:26:41.604Z,15.40
2022-09-09T06:29:08.875Z,15.50
2022-09-09T06:31:38.039Z,15.60
2022-09-09T06:34:09.938Z,15.50
2022-09-09T06:36:39.800Z,15.40
2022-09-09T06:39:14.180Z,15.30
2022-09-09T06:41:43.921Z,15.30
2022-09-09T06:44:14.239Z,15.30
2022-09-09T06:46:41.934Z,15.30
2022-09-09T06:49:10.676Z,15.40
2022-09-09T06:51:44.074Z,15.40
2022-09-09T06:54:13.293Z,15.40
2022-09-09T06:56:46.788Z,15.50
2022-09-09T06:59:14.604Z,15.50
2022-09-09T07:01:50.298Z,15.60
2022-09-09T07:04:20.149Z,15.60
2022-09-09T07:06:47.553Z,15.70
2022-09-09T07:09:22.688Z,15.70
2022-09-09T07:11:53.830Z,15.80
2022-09-09T07:14:23.088Z,15.80
2022-09-09T07:16:57.600Z,15.90
2022-09-09T07:19:28.428Z,16.00
2022-09-09T07:22:00.866Z,16.20
2022-09-09T07:27:14.001Z,16.30
2022-09-09T07:29:42.393Z,16.30
2022-09-09T07:32:09.451Z,16.50
2022-09-09T07:34:36.482Z,16.50
2022-09-09T07:37:03.765Z,16.50
2022-09-09T07:39:30.956Z,16.70
2022-09-09T07:41:59.546Z,16.70
2022-09-09T07:44:28.640Z,16.80
2022-09-09T07:46:55.726Z,16.80
2022-09-09T07:49:29.661Z,16.90
2022-09-09T07:51:58.673Z,17.10
2022-09-09T07:54:25.826Z,17.10
2022-09-09T07:56:53.633Z,17.20
2022-09-09T07:59:21.172Z,17.20
2022-09-09T08:01:55.540Z,17.10
2022-09-09T08:04:25.259Z,17.10
2022-09-09T08:07:00.353Z,17.20
2022-09-09T08:09:30.073Z,17.10
2022-09-09T08:11:59.254Z,17.10
2022-09-09T08:14:26.585Z,17.10
2022-09-09T08:16:55.506Z,17.30
2022-09-09T08:19:22.735Z,17.40
2022-09-09T08:21:50.119Z,17.40
2022-09-09T08:24:17.820Z,17.50
2022-09-09T08:26:50.874Z,17.60
2022-09-09T08:29:19.238Z,17.70
2022-09-09T08:31:55.681Z,17.60
2022-09-09T08:34:24.035Z,17.80
2022-09-09T08:36:52.211Z,17.70
2022-09-09T08:39:22.269Z,17.70
2022-09-09T08:42:20.205Z,17.60
2022-09-09T08:45:43.720Z,17.60
2022-09-09T08:48:48.007Z,17.70
2022-09-09T08:51:15.339Z,17.60
2022-09-09T08:53:49.019Z,17.60
2022-09-09T08:56:23.031Z,17.60
2022-09-09T08:58:55.886Z,17.50
2022-09-09T09:01:51.523Z,17.60
2022-09-09T09:04:45.813Z,17.60
2022-09-09T09:07:42.929Z,17.60
2022-09-09T09:10:42.521Z,17.70
2022-09-09T09:13:41.750Z,17.50
2022-09-09T09:16:33.665Z,17.60
2022-09-09T09:19:01.883Z,17.60
2022-09-09T09:21:35.379Z,17.70
2022-09-09T09:24:05.196Z,17.60
2022-09-09T09:26:36.235Z,17.60
2022-09-09T09:29:16.096Z,17.40
2022-09-09T09:32:04.642Z,17.40
2022-09-09T09:34:31.616Z,17.40
2022-09-09T09:37:03.003Z,17.50
2022-09-09T09:42:26.031Z,17.90
2022-09-09T09:44:53.240Z,18.30
2022-09-09T09:47:28.037Z,18.40
2022-09-09T09:50:03.252Z,18.20
2022-09-09T09:52:32.212Z,18.20
2022-09-09T09:55:07.524Z,17.60
2022-09-09T09:57:35.674Z,17.40
2022-09-09T10:00:21.694Z,17.10
2022-09-09T10:02:53.597Z,17.10
2022-09-09T10:05:27.208Z,17.10
2022-09-09T10:08:14.212Z,17.00
2022-09-09T10:11:05.966Z,17.00
2022-09-09T10:14:18.802Z,17.00
2022-09-09T10:17:30.696Z,17.00
2022-09-09T10:20:41.262Z,16.90
2022-09-09T10:23:46.074Z,16.90
2022-09-09T10:26:40.854Z,16.80
2022-09-09T10:29:22.238Z,16.60
2022-09-09T10:32:46.115Z,16.60
2022-09-09T10:35:29.451Z,16.60
2022-09-09T10:38:12.014Z,16.50
2022-09-09T10:40:59.466Z,16.60
2022-09-09T10:44:16.197Z,16.60
2022-09-09T10:47:28.082Z,16.70
2022-09-09T10:50:28.161Z,16.80
2022-09-09T10:53:09.708Z,17.00
2022-09-09T10:55:49.538Z,17.10
2022-09-09T10:58:29.625Z,17.10
2022-09-09T11:01:08.329Z,17.20
2022-09-09T11:03:41.859Z,17.20
2022-09-09T11:06:20.453Z,17.30
2022-09-09T11:08:52.722Z,17.50
2022-09-09T11:11:43.650Z,17.70
2022-09-09T11:14:25.596Z,17.90
2022-09-09T11:17:07.709Z,17.90
2022-09-09T11:19:43.080Z,18.00
2022-09-09T11:25:45.077Z,18.30
2022-09-09T11:28:27.911Z,18.50
2022-09-09T11:31:19.067Z,18.50
2022-09-09T11:34:13.995Z,18.20
2022-09-09T11:36:50.331Z,18.20
2022-09-09T11:39:32.346Z,18.00
2022-09-09T11:42:14.679Z,18.00
2022-09-09T11:44:43.318Z,18.00
2022-09-09T11:47:32.532Z,18.00
2022-09-09T11:50:31.628Z,18.00
2022-09-09T11:53:14.818Z,17.90
2022-09-09T11:55:42.051Z,17.90
2022-09-09T11:58:14.569Z,17.90
2022-09-09T12:00:48.623Z,18.20
2022-09-09T12:03:51.535Z,18.20
2022-09-09T12:06:46.563Z,18.20
2022-09-09T12:09:39.744Z,18.40
2022-09-09T12:12:14.075Z,18.70
2022-09-09T12:15:04.669Z,18.70
2022-09-09T12:17:38.118Z,18.80
2022-09-09T12:20:18.873Z,18.90
2022-09-09T12:23:21.211Z,18.80
2022-09-09T12:25:48.205Z,18.90
2022-09-09T12:28:43.554Z,19.20
2022-09-09T12:31:42.680Z,18.90
2022-09-09T12:34:28.847Z,19.30
2022-09-09T12:37:04.610Z,19.20
2022-09-09T12:39:43.856Z,18.90
2022-09-09T12:42:24.919Z,18.70
2022-09-09T12:44:58.099Z,18.80
2022-09-09T12:47:56.723Z,18.90
2022-09-09T12:50:28.303Z,18.80
2022-09-09T12:53:03.086Z,18.80
2022-09-09T12:55:39.232Z,18.90
2022-09-09T12:58:07.904Z,18.90
2022-09-09T13:00:35.939Z,18.80
2022-09-09T13:03:18.093Z,19.00
2022-09-09T13:05:45.075Z,19.30
2022-09-09T13:08:15.096Z,19.30
2022-09-09T13:11:00.294Z,19.40
2022-09-09T13:13:42.218Z,19.70
2022-09-09T13:16:32.773Z,19.60
2022-09-09T13:19:18.205Z,20.00
2022-09-09T13:21:45.466Z,20.20
2022-09-09T13:24:43.581Z,20.10
2022-09-09T13:27:39.869Z,20.10
2022-09-09T13:30:25.905Z,19.90
2022-09-09T13:33:24.241Z,19.70
2022-09-09T13:36:00.093Z,19.50
2022-09-09T13:38:30.244Z,19.50
2022-09-09T13:41:05.914Z,19.60
2022-09-09T13:43:56.156Z,19.70
2022-09-09T13:46:42.343Z,19.90
2022-09-09T13:49:12.316Z,20.00
2022-09-09T13:51:43.257Z,20.00
2022-09-09T13:54:12.131Z,20.00
2022-09-09T13:56:41.405Z,20.10
2022-09-09T13:59:15.066Z,20.30
2022-09-09T14:01:43.606Z,20.70
2022-09-09T14:04:11.677Z,20.90
2022-09-09T14:06:40.321Z,20.70
2022-09-09T14:09:11.562Z,20.50
2022-09-09T14:11:39.026Z,20.20
2022-09-09T14:14:06.430Z,20.00
2022-09-09T14:16:33.879Z,20.00
2022-09-09T14:19:01.054Z,20.10
2022-09-09T14:21:29.469Z,19.90
2022-09-09T14:23:59.036Z,19.90
2022-09-09T14:26:27.225Z,20.20
2022-09-09T14:28:55.705Z,20.60
2022-09-09T14:31:24.617Z,20.70
2022-09-09T14:33:54.786Z,20.70
2022-09-09T14:36:22.154Z,20.50
2022-09-09T14:38:49.730Z,20.80
2022-09-09T14:41:19.741Z,21.00
2022-09-09T14:43:47.546Z,21.20
2022-09-09T14:46:18.908Z,21.10
2022-09-09T14:48:47.921Z,20.80
2022-09-09T14:51:20.738Z,21.00
2022-09-09T14:53:48.407Z,20.90
2022-09-09T14:56:23.154Z,20.70
2022-09-09T14:58:51.982Z,20.40
2022-09-09T15:01:21.410Z,20.30
2022-09-09T15:03:53.712Z,20.20
2022-09-09T15:06:22.472Z,20.50
2022-09-09T15:08:51.656Z,20.90
2022-09-09T15:11:18.709Z,20.70
2022-09-09T15:13:45.865Z,20.70
2022-09-09T15:16:18.879Z,20.60
2022-09-09T15:18:47.810Z,20.80
2022-09-09T15:21:20.092Z,20.80
2022-09-09T15:26:31.122Z,20.40
2022-09-09T15:29:00.139Z,20.40
2022-09-09T15:31:32.857Z,20.60
2022-09-09T15:34:06.857Z,20.80
2022-09-09T15:36:36.880Z,20.50
2022-09-09T15:39:08.011Z,20.30
2022-09-09T15:41:35.712Z,20.20
2022-09-09T15:44:03.810Z,20.10
2022-09-09T15:46:38.820Z,20.10
2022-09-09T15:49:28.299Z,20.20
2022-09-09T15:52:02.499Z,20.20
2022-09-09T15:54:35.875Z,20.20
2022-09-09T15:57:06.484Z,20.40
2022-09-09T15:59:35.007Z,20.70
2022-09-09T16:02:02.868Z,20.50
2022-09-09T16:04:30.595Z,20.40
2022-09-09T16:07:05.158Z,20.30
2022-09-09T16:09:33.274Z,20.10
2022-09-09T16:12:02.028Z,19.90
2022-09-09T16:14:34.980Z,19.90
2022-09-09T16:17:02.722Z,19.80
2022-09-09T16:19:29.690Z,19.70
2022-09-09T16:21:57.017Z,19.60
2022-09-09T16:24:25.044Z,19.60
2022-09-09T16:26:55.222Z,19.40
2022-09-09T16:29:23.969Z,19.30
2022-09-09T16:31:52.501Z,19.20
2022-09-09T16:34:19.808Z,19.30
2022-09-09T16:36:49.335Z,19.20
2022-09-09T16:39:21.701Z,19.20
2022-09-09T16:41:49.960Z,19.00
2022-09-09T16:44:20.309Z,18.50
2022-09-09T16:46:56.711Z,18.20
2022-09-09T16:49:28.273Z,17.70
2022-09-09T16:51:58.171Z,17.20
2022-09-09T16:54:26.188Z,16.60
2022-09-09T16:56:53.423Z,16.30
2022-09-09T16:59:25.058Z,16.30
2022-09-09T17:01:54.688Z,16.40
